sensor_id;sensor_type;location;lat;lon;timestamp;P1;durP1;ratioP1;P2;durP2;ratioP2
21589;SDS011;10957;50.968;6.828;2023-02-28T00:03:17;3.70;;;3.60;;
21589;SDS011;10957;50.968;6.828;2023-02-28T00:08:19;4.10;;;3.90;;
21589;SDS011;10957;50.968;6.828;2023-02-28T00:13:20;3.83;;;3.73;;
21589;SDS011;10957;50.968;6.828;2023-02-28T00:18:21;3.80;;;3.70;;
21589;SDS011;10957;50.968;6.828;2023-02-28T00:23:22;3.80;;;3.70;;
21589;SDS011;10957;50.968;6.828;2023-02-28T00:28:24;5.63;;;5.10;;
21589;SDS011;10957;50.968;6.828;2023-02-28T00:33:26;3.80;;;3.70;;
21589;SDS011;10957;50.968;6.828;2023-02-28T00:38:29;3.70;;;3.60;;
21589;SDS011;10957;50.968;6.828;2023-02-28T00:43:31;3.80;;;3.70;;
21589;SDS011;10957;50.968;6.828;2023-02-28T00:48:35;3.80;;;3.70;;
21589;SDS011;10957;50.968;6.828;2023-02-28T00:53:37;4.00;;;3.80;;
21589;SDS011;10957;50.968;6.828;2023-02-28T00:58:39;3.90;;;3.80;;
21589;SDS011;10957;50.968;6.828;2023-02-28T01:03:40;4.20;;;4.00;;
21589;SDS011;10957;50.968;6.828;2023-02-28T01:08:42;4.20;;;4.00;;
21589;SDS011;10957;50.968;6.828;2023-02-28T01:13:44;3.80;;;3.70;;
21589;SDS011;10957;50.968;6.828;2023-02-28T01:18:46;3.70;;;3.60;;
21589;SDS011;10957;50.968;6.828;2023-02-28T01:23:48;4.20;;;4.00;;
21589;SDS011;10957;50.968;6.828;2023-02-28T01:28:50;3.70;;;3.60;;
21589;SDS011;10957;50.968;6.828;2023-02-28T01:33:52;3.67;;;3.57;;
21589;SDS011;10957;50.968;6.828;2023-02-28T01:38:54;3.70;;;3.60;;
21589;SDS011;10957;50.968;6.828;2023-02-28T01:54:16;3.97;;;3.80;;
21589;SDS011;10957;50.968;6.828;2023-02-28T01:59:29;4.10;;;3.90;;
21589;SDS011;10957;50.968;6.828;2023-02-28T02:04:51;3.80;;;3.70;;
21589;SDS011;10957;50.968;6.828;2023-02-28T02:10:10;3.57;;;3.47;;
21589;SDS011;10957;50.968;6.828;2023-02-28T02:15:24;4.23;;;4.03;;
21589;SDS011;10957;50.968;6.828;2023-02-28T02:20:46;3.60;;;3.50;;
21589;SDS011;10957;50.968;6.828;2023-02-28T02:37:00;3.60;;;3.50;;
21589;SDS011;10957;50.968;6.828;2023-02-28T02:42:27;3.50;;;3.40;;
21589;SDS011;10957;50.968;6.828;2023-02-28T02:47:36;4.10;;;3.90;;
21589;SDS011;10957;50.968;6.828;2023-02-28T02:52:44;4.20;;;4.00;;
21589;SDS011;10957;50.968;6.828;2023-02-28T02:58:00;4.00;;;3.83;;
21589;SDS011;10957;50.968;6.828;2023-02-28T03:03:08;3.73;;;3.63;;
21589;SDS011;10957;50.968;6.828;2023-02-28T03:08:11;4.43;;;4.23;;
21589;SDS011;10957;50.968;6.828;2023-02-28T03:18:48;3.70;;;3.60;;
21589;SDS011;10957;50.968;6.828;2023-02-28T03:24:16;3.60;;;3.50;;
21589;SDS011;10957;50.968;6.828;2023-02-28T03:29:34;3.70;;;3.60;;
21589;SDS011;10957;50.968;6.828;2023-02-28T03:34:39;3.70;;;3.60;;
21589;SDS011;10957;50.968;6.828;2023-02-28T03:39:59;3.70;;;3.60;;
21589;SDS011;10957;50.968;6.828;2023-02-28T03:45:11;3.80;;;3.70;;
21589;SDS011;10957;50.968;6.828;2023-02-28T03:55:28;4.20;;;4.00;;
21589;SDS011;10957;50.968;6.828;2023-02-28T04:00:34;5.27;;;5.07;;
21589;SDS011;10957;50.968;6.828;2023-02-28T04:05:48;3.80;;;3.70;;
21589;SDS011;10957;50.968;6.828;2023-02-28T04:10:54;4.30;;;4.10;;
21589;SDS011;10957;50.968;6.828;2023-02-28T04:15:59;4.57;;;4.37;;
21589;SDS011;10957;50.968;6.828;2023-02-28T04:21:00;4.17;;;3.97;;
21589;SDS011;10957;50.968;6.828;2023-02-28T04:26:02;4.40;;;4.20;;
21589;SDS011;10957;50.968;6.828;2023-02-28T04:31:04;4.87;;;4.67;;
21589;SDS011;10957;50.968;6.828;2023-02-28T04:36:06;4.20;;;4.00;;
21589;SDS011;10957;50.968;6.828;2023-02-28T04:41:09;4.73;;;4.53;;
21589;SDS011;10957;50.968;6.828;2023-02-28T04:46:10;4.67;;;4.47;;
21589;SDS011;10957;50.968;6.828;2023-02-28T04:51:12;4.30;;;4.10;;
21589;SDS011;10957;50.968;6.828;2023-02-28T04:56:16;4.30;;;4.10;;
21589;SDS011;10957;50.968;6.828;2023-02-28T05:01:21;4.67;;;4.47;;
21589;SDS011;10957;50.968;6.828;2023-02-28T05:06:24;4.10;;;3.90;;
21589;SDS011;10957;50.968;6.828;2023-02-28T05:11:28;4.30;;;4.10;;
21589;SDS011;10957;50.968;6.828;2023-02-28T05:16:35;3.90;;;3.80;;
21589;SDS011;10957;50.968;6.828;2023-02-28T05:21:37;4.40;;;4.20;;
21589;SDS011;10957;50.968;6.828;2023-02-28T05:26:42;4.30;;;4.10;;
21589;SDS011;10957;50.968;6.828;2023-02-28T05:31:43;5.00;;;4.80;;
21589;SDS011;10957;50.968;6.828;2023-02-28T05:36:44;4.60;;;4.40;;
21589;SDS011;10957;50.968;6.828;2023-02-28T05:41:46;4.73;;;4.53;;
21589;SDS011;10957;50.968;6.828;2023-02-28T05:46:47;5.30;;;5.10;;
21589;SDS011;10957;50.968;6.828;2023-02-28T05:51:48;5.40;;;5.20;;
21589;SDS011;10957;50.968;6.828;2023-02-28T05:56:49;5.23;;;5.03;;
21589;SDS011;10957;50.968;6.828;2023-02-28T06:01:50;5.30;;;5.10;;
21589;SDS011;10957;50.968;6.828;2023-02-28T06:06:54;5.17;;;4.97;;
21589;SDS011;10957;50.968;6.828;2023-02-28T06:11:59;5.50;;;5.30;;
21589;SDS011;10957;50.968;6.828;2023-02-28T06:17:01;5.20;;;5.00;;
21589;SDS011;10957;50.968;6.828;2023-02-28T06:22:03;5.40;;;5.20;;
21589;SDS011;10957;50.968;6.828;2023-02-28T06:27:05;5.53;;;5.33;;
21589;SDS011;10957;50.968;6.828;2023-02-28T06:32:06;6.13;;;5.83;;
21589;SDS011;10957;50.968;6.828;2023-02-28T06:37:07;5.30;;;5.10;;
21589;SDS011;10957;50.968;6.828;2023-02-28T06:42:08;5.90;;;5.60;;
21589;SDS011;10957;50.968;6.828;2023-02-28T06:47:09;5.50;;;5.30;;
21589;SDS011;10957;50.968;6.828;2023-02-28T06:52:10;5.00;;;4.80;;
21589;SDS011;10957;50.968;6.828;2023-02-28T06:57:12;5.10;;;4.90;;
21589;SDS011;10957;50.968;6.828;2023-02-28T07:02:13;4.93;;;4.73;;
21589;SDS011;10957;50.968;6.828;2023-02-28T07:07:14;5.43;;;5.23;;
21589;SDS011;10957;50.968;6.828;2023-02-28T07:12:15;5.40;;;5.20;;
21589;SDS011;10957;50.968;6.828;2023-02-28T07:17:17;5.20;;;5.00;;
21589;SDS011;10957;50.968;6.828;2023-02-28T07:22:18;5.30;;;5.10;;
21589;SDS011;10957;50.968;6.828;2023-02-28T07:27:19;5.10;;;4.90;;
21589;SDS011;10957;50.968;6.828;2023-02-28T07:32:24;5.10;;;4.90;;
21589;SDS011;10957;50.968;6.828;2023-02-28T07:37:25;5.00;;;4.80;;
21589;SDS011;10957;50.968;6.828;2023-02-28T07:42:26;4.93;;;4.73;;
21589;SDS011;10957;50.968;6.828;2023-02-28T07:47:31;4.90;;;4.70;;
21589;SDS011;10957;50.968;6.828;2023-02-28T07:52:32;4.80;;;4.60;;
21589;SDS011;10957;50.968;6.828;2023-02-28T07:57:34;5.00;;;4.80;;
21589;SDS011;10957;50.968;6.828;2023-02-28T08:02:35;4.80;;;4.60;;
21589;SDS011;10957;50.968;6.828;2023-02-28T08:07:37;5.30;;;5.00;;
21589;SDS011;10957;50.968;6.828;2023-02-28T08:12:38;5.00;;;4.80;;
21589;SDS011;10957;50.968;6.828;2023-02-28T08:17:39;5.03;;;4.83;;
21589;SDS011;10957;50.968;6.828;2023-02-28T08:22:40;5.30;;;5.10;;
21589;SDS011;10957;50.968;6.828;2023-02-28T08:27:42;5.67;;;5.47;;
21589;SDS011;10957;50.968;6.828;2023-02-28T08:32:43;5.30;;;5.10;;
21589;SDS011;10957;50.968;6.828;2023-02-28T08:37:44;5.00;;;4.80;;
21589;SDS011;10957;50.968;6.828;2023-02-28T08:42:48;5.40;;;5.20;;
21589;SDS011;10957;50.968;6.828;2023-02-28T08:47:50;4.97;;;4.77;;
21589;SDS011;10957;50.968;6.828;2023-02-28T08:52:53;5.30;;;5.10;;
21589;SDS011;10957;50.968;6.828;2023-02-28T08:57:54;5.20;;;5.00;;
21589;SDS011;10957;50.968;6.828;2023-02-28T09:02:55;5.50;;;5.30;;
21589;SDS011;10957;50.968;6.828;2023-02-28T09:07:56;5.00;;;4.80;;
21589;SDS011;10957;50.968;6.828;2023-02-28T09:12:57;5.50;;;5.30;;
21589;SDS011;10957;50.968;6.828;2023-02-28T09:17:59;5.33;;;5.07;;
21589;SDS011;10957;50.968;6.828;2023-02-28T09:23:00;5.33;;;5.13;;
21589;SDS011;10957;50.968;6.828;2023-02-28T09:28:01;5.60;;;5.40;;
21589;SDS011;10957;50.968;6.828;2023-02-28T09:33:03;5.20;;;5.00;;
21589;SDS011;10957;50.968;6.828;2023-02-28T09:38:04;5.50;;;5.30;;
21589;SDS011;10957;50.968;6.828;2023-02-28T09:43:09;5.43;;;5.23;;
21589;SDS011;10957;50.968;6.828;2023-02-28T09:48:18;5.40;;;5.20;;
21589;SDS011;10957;50.968;6.828;2023-02-28T09:53:34;6.00;;;5.70;;
21589;SDS011;10957;50.968;6.828;2023-02-28T09:58:49;5.60;;;5.40;;
21589;SDS011;10957;50.968;6.828;2023-02-28T10:04:00;5.47;;;5.27;;
21589;SDS011;10957;50.968;6.828;2023-02-28T10:09:15;5.90;;;5.60;;
21589;SDS011;10957;50.968;6.828;2023-02-28T10:14:31;5.40;;;5.20;;
21589;SDS011;10957;50.968;6.828;2023-02-28T10:19:38;5.80;;;5.50;;
21589;SDS011;10957;50.968;6.828;2023-02-28T10:24:55;5.50;;;5.30;;
21589;SDS011;10957;50.968;6.828;2023-02-28T10:30:02;5.30;;;5.10;;
21589;SDS011;10957;50.968;6.828;2023-02-28T10:45:20;5.70;;;5.30;;
21589;SDS011;10957;50.968;6.828;2023-02-28T10:55:42;7.00;;;6.60;;
21589;SDS011;10957;50.968;6.828;2023-02-28T11:00:44;5.53;;;5.33;;
21589;SDS011;10957;50.968;6.828;2023-02-28T11:05:46;5.33;;;5.13;;
21589;SDS011;10957;50.968;6.828;2023-02-28T11:10:58;5.40;;;5.20;;
21589;SDS011;10957;50.968;6.828;2023-02-28T11:16:05;7.07;;;6.77;;
21589;SDS011;10957;50.968;6.828;2023-02-28T11:21:09;5.73;;;5.50;;
21589;SDS011;10957;50.968;6.828;2023-02-28T11:26:34;6.37;;;6.07;;
21589;SDS011;10957;50.968;6.828;2023-02-28T11:32:00;5.63;;;5.43;;
21589;SDS011;10957;50.968;6.828;2023-02-28T11:37:18;6.40;;;6.10;;
21589;SDS011;10957;50.968;6.828;2023-02-28T11:47:41;6.00;;;5.70;;
21589;SDS011;10957;50.968;6.828;2023-02-28T11:52:57;6.07;;;5.78;;
21589;SDS011;10957;50.968;6.828;2023-02-28T12:09:20;5.40;;;5.20;;
21589;SDS011;10957;50.968;6.828;2023-02-28T12:30:53;5.70;;;5.50;;
21589;SDS011;10957;50.968;6.828;2023-02-28T12:36:15;6.00;;;5.70;;
21589;SDS011;10957;50.968;6.828;2023-02-28T12:41:22;6.25;;;5.95;;
21589;SDS011;10957;50.968;6.828;2023-02-28T12:46:45;6.10;;;5.80;;
21589;SDS011;10957;50.968;6.828;2023-02-28T12:51:51;5.90;;;5.60;;
21589;SDS011;10957;50.968;6.828;2023-02-28T12:56:56;6.00;;;5.70;;
21589;SDS011;10957;50.968;6.828;2023-02-28T13:08:22;6.25;;;5.95;;
21589;SDS011;10957;50.968;6.828;2023-02-28T13:13:28;5.70;;;5.50;;
21589;SDS011;10957;50.968;6.828;2023-02-28T13:18:36;5.80;;;5.55;;
21589;SDS011;10957;50.968;6.828;2023-02-28T13:34:16;5.65;;;5.45;;
21589;SDS011;10957;50.968;6.828;2023-02-28T13:55:28;6.30;;;6.00;;
21589;SDS011;10957;50.968;6.828;2023-02-28T14:06:28;6.30;;;6.00;;
21589;SDS011;10957;50.968;6.828;2023-02-28T14:11:33;6.00;;;5.70;;
21589;SDS011;10957;50.968;6.828;2023-02-28T14:32:54;6.60;;;6.20;;
21589;SDS011;10957;50.968;6.828;2023-02-28T14:38:19;6.30;;;6.00;;
21589;SDS011;10957;50.968;6.828;2023-02-28T14:43:25;5.90;;;5.65;;
21589;SDS011;10957;50.968;6.828;2023-02-28T14:48:28;5.90;;;5.60;;
21589;SDS011;10957;50.968;6.828;2023-02-28T14:53:30;5.60;;;5.40;;
21589;SDS011;10957;50.968;6.828;2023-02-28T14:58:37;5.90;;;5.60;;
21589;SDS011;10957;50.968;6.828;2023-02-28T15:03:39;5.80;;;5.55;;
21589;SDS011;10957;50.968;6.828;2023-02-28T15:08:41;5.50;;;5.30;;
21589;SDS011;10957;50.968;6.828;2023-02-28T15:18:46;5.55;;;5.35;;
21589;SDS011;10957;50.968;6.828;2023-02-28T15:23:50;6.22;;;5.93;;
21589;SDS011;10957;50.968;6.828;2023-02-28T15:28:59;6.20;;;5.80;;
21589;SDS011;10957;50.968;6.828;2023-02-28T15:34:05;7.32;;;6.93;;
21589;SDS011;10957;50.968;6.828;2023-02-28T15:39:24;6.20;;;5.90;;
21589;SDS011;10957;50.968;6.828;2023-02-28T15:44:33;6.18;;;5.88;;
21589;SDS011;10957;50.968;6.828;2023-02-28T15:49:39;6.07;;;5.78;;
21589;SDS011;10957;50.968;6.828;2023-02-28T15:54:47;6.35;;;6.05;;
21589;SDS011;10957;50.968;6.828;2023-02-28T15:59:50;5.55;;;5.35;;
21589;SDS011;10957;50.968;6.828;2023-02-28T16:10:12;5.65;;;5.45;;
21589;SDS011;10957;50.968;6.828;2023-02-28T16:20:20;6.10;;;5.80;;
21589;SDS011;10957;50.968;6.828;2023-02-28T16:25:39;5.65;;;5.45;;
21589;SDS011;10957;50.968;6.828;2023-02-28T16:30:42;5.45;;;5.25;;
21589;SDS011;10957;50.968;6.828;2023-02-28T16:35:43;5.85;;;5.55;;
21589;SDS011;10957;50.968;6.828;2023-02-28T16:40:45;5.40;;;5.20;;
21589;SDS011;10957;50.968;6.828;2023-02-28T16:45:46;5.22;;;5.03;;
21589;SDS011;10957;50.968;6.828;2023-02-28T16:50:48;5.23;;;5.03;;
21589;SDS011;10957;50.968;6.828;2023-02-28T16:55:49;5.30;;;5.10;;
21589;SDS011;10957;50.968;6.828;2023-02-28T17:00:51;5.70;;;5.40;;
21589;SDS011;10957;50.968;6.828;2023-02-28T17:05:52;5.20;;;5.00;;
21589;SDS011;10957;50.968;6.828;2023-02-28T17:10:54;5.87;;;5.43;;
21589;SDS011;10957;50.968;6.828;2023-02-28T17:15:55;5.50;;;5.30;;
21589;SDS011;10957;50.968;6.828;2023-02-28T17:20:56;6.10;;;5.80;;
21589;SDS011;10957;50.968;6.828;2023-02-28T17:25:57;6.10;;;5.80;;
21589;SDS011;10957;50.968;6.828;2023-02-28T17:30:59;5.90;;;5.60;;
21589;SDS011;10957;50.968;6.828;2023-02-28T17:36:00;6.53;;;6.23;;
21589;SDS011;10957;50.968;6.828;2023-02-28T17:41:02;6.30;;;6.00;;
21589;SDS011;10957;50.968;6.828;2023-02-28T17:46:03;5.60;;;5.40;;
21589;SDS011;10957;50.968;6.828;2023-02-28T17:51:06;6.00;;;5.70;;
21589;SDS011;10957;50.968;6.828;2023-02-28T17:56:15;5.70;;;5.50;;
21589;SDS011;10957;50.968;6.828;2023-02-28T18:01:20;5.90;;;5.60;;
21589;SDS011;10957;50.968;6.828;2023-02-28T18:11:26;5.83;;;5.57;;
21589;SDS011;10957;50.968;6.828;2023-02-28T18:16:43;5.60;;;5.40;;
21589;SDS011;10957;50.968;6.828;2023-02-28T18:21:49;5.90;;;5.60;;
21589;SDS011;10957;50.968;6.828;2023-02-28T18:26:51;5.93;;;5.63;;
21589;SDS011;10957;50.968;6.828;2023-02-28T18:31:53;6.83;;;6.43;;
21589;SDS011;10957;50.968;6.828;2023-02-28T18:36:55;7.20;;;6.80;;
21589;SDS011;10957;50.968;6.828;2023-02-28T18:41:57;6.00;;;5.70;;
21589;SDS011;10957;50.968;6.828;2023-02-28T18:46:58;5.93;;;5.63;;
21589;SDS011;10957;50.968;6.828;2023-02-28T18:52:00;5.67;;;5.47;;
21589;SDS011;10957;50.968;6.828;2023-02-28T18:57:02;5.97;;;5.67;;
21589;SDS011;10957;50.968;6.828;2023-02-28T19:02:03;6.00;;;5.70;;
21589;SDS011;10957;50.968;6.828;2023-02-28T19:07:04;6.00;;;5.70;;
21589;SDS011;10957;50.968;6.828;2023-02-28T19:12:06;6.00;;;5.70;;
21589;SDS011;10957;50.968;6.828;2023-02-28T19:17:07;6.00;;;5.70;;
21589;SDS011;10957;50.968;6.828;2023-02-28T19:22:08;5.37;;;5.17;;
21589;SDS011;10957;50.968;6.828;2023-02-28T19:27:09;6.00;;;5.70;;
21589;SDS011;10957;50.968;6.828;2023-02-28T19:32:10;5.50;;;5.30;;
21589;SDS011;10957;50.968;6.828;2023-02-28T19:37:12;6.07;;;5.77;;
21589;SDS011;10957;50.968;6.828;2023-02-28T19:42:17;6.13;;;5.83;;
21589;SDS011;10957;50.968;6.828;2023-02-28T19:47:18;6.20;;;5.90;;
21589;SDS011;10957;50.968;6.828;2023-02-28T19:52:20;6.43;;;5.93;;
21589;SDS011;10957;50.968;6.828;2023-02-28T19:57:21;4.80;;;4.60;;
21589;SDS011;10957;50.968;6.828;2023-02-28T20:02:22;6.10;;;5.80;;
21589;SDS011;10957;50.968;6.828;2023-02-28T20:07:24;5.13;;;4.93;;
21589;SDS011;10957;50.968;6.828;2023-02-28T20:12:27;5.00;;;4.80;;
21589;SDS011;10957;50.968;6.828;2023-02-28T20:17:28;5.20;;;5.00;;
21589;SDS011;10957;50.968;6.828;2023-02-28T20:22:30;5.00;;;4.80;;
21589;SDS011;10957;50.968;6.828;2023-02-28T20:27:31;4.60;;;4.40;;
21589;SDS011;10957;50.968;6.828;2023-02-28T20:32:34;4.47;;;4.27;;
21589;SDS011;10957;50.968;6.828;2023-02-28T20:37:38;4.60;;;4.40;;
21589;SDS011;10957;50.968;6.828;2023-02-28T20:42:39;4.30;;;4.10;;
21589;SDS011;10957;50.968;6.828;2023-02-28T20:47:40;4.90;;;4.60;;
21589;SDS011;10957;50.968;6.828;2023-02-28T20:52:43;4.40;;;4.20;;
21589;SDS011;10957;50.968;6.828;2023-02-28T20:57:44;4.13;;;3.93;;
21589;SDS011;10957;50.968;6.828;2023-02-28T21:02:45;4.03;;;3.87;;
21589;SDS011;10957;50.968;6.828;2023-02-28T21:07:46;4.40;;;4.20;;
21589;SDS011;10957;50.968;6.828;2023-02-28T21:12:48;4.10;;;3.90;;
21589;SDS011;10957;50.968;6.828;2023-02-28T21:17:50;4.20;;;4.00;;
21589;SDS011;10957;50.968;6.828;2023-02-28T21:22:51;3.80;;;3.70;;
21589;SDS011;10957;50.968;6.828;2023-02-28T21:27:53;3.77;;;3.67;;
21589;SDS011;10957;50.968;6.828;2023-02-28T21:32:55;3.70;;;3.60;;
21589;SDS011;10957;50.968;6.828;2023-02-28T21:37:57;3.40;;;3.30;;
21589;SDS011;10957;50.968;6.828;2023-02-28T21:42:58;4.10;;;3.90;;
21589;SDS011;10957;50.968;6.828;2023-02-28T21:47:59;3.80;;;3.70;;
21589;SDS011;10957;50.968;6.828;2023-02-28T21:53:01;3.90;;;3.80;;
21589;SDS011;10957;50.968;6.828;2023-02-28T21:58:03;4.20;;;4.00;;
21589;SDS011;10957;50.968;6.828;2023-02-28T22:03:06;4.17;;;3.97;;
21589;SDS011;10957;50.968;6.828;2023-02-28T22:08:09;3.63;;;3.53;;
21589;SDS011;10957;50.968;6.828;2023-02-28T22:13:12;4.13;;;3.93;;
21589;SDS011;10957;50.968;6.828;2023-02-28T22:18:15;6.00;;;5.60;;
21589;SDS011;10957;50.968;6.828;2023-02-28T22:23:18;4.63;;;4.43;;
21589;SDS011;10957;50.968;6.828;2023-02-28T22:28:21;3.90;;;3.80;;
21589;SDS011;10957;50.968;6.828;2023-02-28T22:33:25;3.70;;;3.60;;
21589;SDS011;10957;50.968;6.828;2023-02-28T22:38:29;4.10;;;3.90;;
21589;SDS011;10957;50.968;6.828;2023-02-28T22:43:36;3.60;;;3.50;;
21589;SDS011;10957;50.968;6.828;2023-02-28T22:48:40;3.93;;;3.80;;
21589;SDS011;10957;50.968;6.828;2023-02-28T22:53:43;3.80;;;3.70;;
21589;SDS011;10957;50.968;6.828;2023-02-28T22:58:50;4.20;;;4.00;;
21589;SDS011;10957;50.968;6.828;2023-02-28T23:03:52;3.77;;;3.67;;
21589;SDS011;10957;50.968;6.828;2023-02-28T23:08:55;3.70;;;3.60;;
21589;SDS011;10957;50.968;6.828;2023-02-28T23:13:58;4.37;;;4.17;;
21589;SDS011;10957;50.968;6.828;2023-02-28T23:19:00;4.40;;;4.20;;
21589;SDS011;10957;50.968;6.828;2023-02-28T23:24:04;4.10;;;3.90;;
21589;SDS011;10957;50.968;6.828;2023-02-28T23:29:10;3.87;;;3.77;;
21589;SDS011;10957;50.968;6.828;2023-02-28T23:34:12;4.13;;;3.93;;
21589;SDS011;10957;50.968;6.828;2023-02-28T23:39:15;4.17;;;3.97;;
21589;SDS011;10957;50.968;6.828;2023-02-28T23:44:17;4.80;;;4.60;;
21589;SDS011;10957;50.968;6.828;2023-02-28T23:49:18;4.37;;;4.17;;
21589;SDS011;10957;50.968;6.828;2023-02-28T23:54:20;4.40;;;4.20;;
21589;SDS011;10957;50.968;6.828;2023-02-28T23:59:21;4.40;;;4.20;;
